sensor_id;sensor_type;location;lat;lon;timestamp;P1;durP1;ratioP1;P2;durP2;ratioP2
11805;SDS011;5960;42.602;23.482;2022-10-16T00:01:36;6.70;;;4.72;;
11805;SDS011;5960;42.602;23.482;2022-10-16T00:04:03;23.23;;;9.25;;
11805;SDS011;5960;42.602;23.482;2022-10-16T00:06:30;26.63;;;8.90;;
11805;SDS011;5960;42.602;23.482;2022-10-16T00:08:58;18.52;;;6.90;;
11805;SDS011;5960;42.602;23.482;2022-10-16T00:11:26;16.70;;;6.95;;
11805;SDS011;5960;42.602;23.482;2022-10-16T00:13:55;7.80;;;3.70;;
11805;SDS011;5960;42.602;23.482;2022-10-16T00:16:23;4.90;;;3.30;;
11805;SDS011;5960;42.602;23.482;2022-10-16T00:18:50;7.53;;;3.65;;
11805;SDS011;5960;42.602;23.482;2022-10-16T00:21:18;17.80;;;7.72;;
11805;SDS011;5960;42.602;23.482;2022-10-16T00:23:46;13.90;;;7.00;;
11805;SDS011;5960;42.602;23.482;2022-10-16T00:26:17;14.85;;;7.05;;
11805;SDS011;5960;42.602;23.482;2022-10-16T00:28:45;5.07;;;3.67;;
11805;SDS011;5960;42.602;23.482;2022-10-16T00:31:12;6.65;;;4.10;;
11805;SDS011;5960;42.602;23.482;2022-10-16T00:33:39;9.68;;;4.78;;
11805;SDS011;5960;42.602;23.482;2022-10-16T00:36:07;15.77;;;7.38;;
11805;SDS011;5960;42.602;23.482;2022-10-16T00:38:36;12.00;;;5.15;;
11805;SDS011;5960;42.602;23.482;2022-10-16T00:41:03;9.98;;;4.50;;
11805;SDS011;5960;42.602;23.482;2022-10-16T00:43:40;7.85;;;4.85;;
11805;SDS011;5960;42.602;23.482;2022-10-16T00:46:13;10.88;;;4.80;;
11805;SDS011;5960;42.602;23.482;2022-10-16T00:48:45;6.05;;;4.28;;
11805;SDS011;5960;42.602;23.482;2022-10-16T00:51:18;4.68;;;3.45;;
11805;SDS011;5960;42.602;23.482;2022-10-16T00:53:49;6.85;;;3.30;;
11805;SDS011;5960;42.602;23.482;2022-10-16T00:56:16;4.80;;;3.40;;
11805;SDS011;5960;42.602;23.482;2022-10-16T00:58:45;7.72;;;3.35;;
11805;SDS011;5960;42.602;23.482;2022-10-16T01:01:12;5.97;;;3.08;;
11805;SDS011;5960;42.602;23.482;2022-10-16T01:03:39;4.32;;;3.15;;
11805;SDS011;5960;42.602;23.482;2022-10-16T01:06:12;4.72;;;3.08;;
11805;SDS011;5960;42.602;23.482;2022-10-16T01:08:51;3.75;;;2.97;;
11805;SDS011;5960;42.602;23.482;2022-10-16T01:11:29;3.72;;;3.15;;
11805;SDS011;5960;42.602;23.482;2022-10-16T01:14:08;3.85;;;3.22;;
11805;SDS011;5960;42.602;23.482;2022-10-16T01:16:40;6.70;;;3.65;;
11805;SDS011;5960;42.602;23.482;2022-10-16T01:19:15;5.68;;;3.38;;
11805;SDS011;5960;42.602;23.482;2022-10-16T01:21:46;6.47;;;3.35;;
11805;SDS011;5960;42.602;23.482;2022-10-16T01:24:20;3.75;;;2.97;;
11805;SDS011;5960;42.602;23.482;2022-10-16T01:27:05;5.70;;;3.55;;
11805;SDS011;5960;42.602;23.482;2022-10-16T01:29:36;5.32;;;3.30;;
11805;SDS011;5960;42.602;23.482;2022-10-16T01:32:09;4.32;;;3.38;;
11805;SDS011;5960;42.602;23.482;2022-10-16T01:34:42;3.97;;;2.95;;
11805;SDS011;5960;42.602;23.482;2022-10-16T01:37:14;5.50;;;3.38;;
11805;SDS011;5960;42.602;23.482;2022-10-16T01:39:45;6.85;;;3.45;;
11805;SDS011;5960;42.602;23.482;2022-10-16T01:42:17;4.50;;;3.72;;
11805;SDS011;5960;42.602;23.482;2022-10-16T01:44:47;4.80;;;3.40;;
11805;SDS011;5960;42.602;23.482;2022-10-16T01:47:16;6.40;;;3.97;;
11805;SDS011;5960;42.602;23.482;2022-10-16T01:49:45;4.80;;;3.13;;
11805;SDS011;5960;42.602;23.482;2022-10-16T01:52:14;4.20;;;3.35;;
11805;SDS011;5960;42.602;23.482;2022-10-16T01:54:44;5.13;;;3.50;;
11805;SDS011;5960;42.602;23.482;2022-10-16T01:57:14;4.75;;;3.53;;
11805;SDS011;5960;42.602;23.482;2022-10-16T01:59:45;4.93;;;3.63;;
11805;SDS011;5960;42.602;23.482;2022-10-16T02:02:15;5.00;;;3.15;;
11805;SDS011;5960;42.602;23.482;2022-10-16T02:04:44;4.63;;;3.40;;
11805;SDS011;5960;42.602;23.482;2022-10-16T02:07:12;5.40;;;3.67;;
11805;SDS011;5960;42.602;23.482;2022-10-16T02:09:39;5.78;;;3.60;;
11805;SDS011;5960;42.602;23.482;2022-10-16T02:12:09;5.30;;;3.47;;
11805;SDS011;5960;42.602;23.482;2022-10-16T02:14:41;6.28;;;3.67;;
11805;SDS011;5960;42.602;23.482;2022-10-16T02:17:11;6.00;;;3.80;;
11805;SDS011;5960;42.602;23.482;2022-10-16T02:19:40;5.90;;;3.83;;
11805;SDS011;5960;42.602;23.482;2022-10-16T02:22:08;5.47;;;3.47;;
11805;SDS011;5960;42.602;23.482;2022-10-16T02:24:43;7.38;;;4.25;;
11805;SDS011;5960;42.602;23.482;2022-10-16T02:27:18;4.57;;;3.30;;
11805;SDS011;5960;42.602;23.482;2022-10-16T02:29:52;5.20;;;3.60;;
11805;SDS011;5960;42.602;23.482;2022-10-16T02:32:24;7.95;;;4.55;;
11805;SDS011;5960;42.602;23.482;2022-10-16T02:34:56;9.05;;;4.28;;
11805;SDS011;5960;42.602;23.482;2022-10-16T02:37:25;6.68;;;4.40;;
11805;SDS011;5960;42.602;23.482;2022-10-16T02:39:52;6.28;;;4.18;;
11805;SDS011;5960;42.602;23.482;2022-10-16T02:42:20;5.18;;;4.00;;
11805;SDS011;5960;42.602;23.482;2022-10-16T02:44:47;6.63;;;3.78;;
11805;SDS011;5960;42.602;23.482;2022-10-16T02:47:15;4.80;;;3.92;;
11805;SDS011;5960;42.602;23.482;2022-10-16T02:49:42;5.43;;;3.33;;
11805;SDS011;5960;42.602;23.482;2022-10-16T02:52:09;5.82;;;3.53;;
11805;SDS011;5960;42.602;23.482;2022-10-16T02:54:35;7.07;;;3.97;;
11805;SDS011;5960;42.602;23.482;2022-10-16T02:57:02;5.80;;;3.72;;
11805;SDS011;5960;42.602;23.482;2022-10-16T02:59:29;5.68;;;4.35;;
11805;SDS011;5960;42.602;23.482;2022-10-16T03:01:56;31.95;;;13.43;;
11805;SDS011;5960;42.602;23.482;2022-10-16T03:04:24;6.75;;;5.28;;
11805;SDS011;5960;42.602;23.482;2022-10-16T03:06:50;7.13;;;4.90;;
11805;SDS011;5960;42.602;23.482;2022-10-16T03:09:17;9.63;;;5.60;;
11805;SDS011;5960;42.602;23.482;2022-10-16T03:11:44;11.55;;;6.55;;
11805;SDS011;5960;42.602;23.482;2022-10-16T03:14:11;23.88;;;9.73;;
11805;SDS011;5960;42.602;23.482;2022-10-16T03:16:37;11.18;;;5.72;;
11805;SDS011;5960;42.602;23.482;2022-10-16T03:19:04;13.57;;;5.70;;
11805;SDS011;5960;42.602;23.482;2022-10-16T03:21:32;7.35;;;5.10;;
11805;SDS011;5960;42.602;23.482;2022-10-16T03:23:59;9.20;;;5.35;;
11805;SDS011;5960;42.602;23.482;2022-10-16T03:26:26;10.73;;;5.68;;
11805;SDS011;5960;42.602;23.482;2022-10-16T03:28:53;11.07;;;5.75;;
11805;SDS011;5960;42.602;23.482;2022-10-16T03:31:20;8.52;;;5.22;;
11805;SDS011;5960;42.602;23.482;2022-10-16T03:33:47;7.78;;;4.75;;
11805;SDS011;5960;42.602;23.482;2022-10-16T03:36:14;7.18;;;4.63;;
11805;SDS011;5960;42.602;23.482;2022-10-16T03:38:42;6.95;;;4.47;;
11805;SDS011;5960;42.602;23.482;2022-10-16T03:41:09;7.75;;;4.78;;
11805;SDS011;5960;42.602;23.482;2022-10-16T03:43:35;11.48;;;5.90;;
11805;SDS011;5960;42.602;23.482;2022-10-16T03:46:02;15.77;;;6.63;;
11805;SDS011;5960;42.602;23.482;2022-10-16T03:48:29;12.32;;;6.32;;
11805;SDS011;5960;42.602;23.482;2022-10-16T03:50:57;15.07;;;6.40;;
11805;SDS011;5960;42.602;23.482;2022-10-16T03:53:24;8.82;;;4.97;;
11805;SDS011;5960;42.602;23.482;2022-10-16T03:55:52;4.65;;;3.58;;
11805;SDS011;5960;42.602;23.482;2022-10-16T03:58:19;6.95;;;3.80;;
11805;SDS011;5960;42.602;23.482;2022-10-16T04:00:46;5.38;;;3.63;;
11805;SDS011;5960;42.602;23.482;2022-10-16T04:03:13;5.25;;;3.85;;
11805;SDS011;5960;42.602;23.482;2022-10-16T04:05:40;6.28;;;4.15;;
11805;SDS011;5960;42.602;23.482;2022-10-16T04:08:07;6.45;;;4.10;;
11805;SDS011;5960;42.602;23.482;2022-10-16T04:10:34;9.98;;;5.10;;
11805;SDS011;5960;42.602;23.482;2022-10-16T04:13:02;6.80;;;4.65;;
11805;SDS011;5960;42.602;23.482;2022-10-16T04:15:29;7.03;;;4.35;;
11805;SDS011;5960;42.602;23.482;2022-10-16T04:17:55;7.63;;;4.18;;
11805;SDS011;5960;42.602;23.482;2022-10-16T04:20:22;8.77;;;4.82;;
11805;SDS011;5960;42.602;23.482;2022-10-16T04:22:49;7.28;;;4.90;;
11805;SDS011;5960;42.602;23.482;2022-10-16T04:25:15;9.48;;;5.32;;
11805;SDS011;5960;42.602;23.482;2022-10-16T04:27:42;6.22;;;4.55;;
11805;SDS011;5960;42.602;23.482;2022-10-16T04:30:10;7.60;;;4.40;;
11805;SDS011;5960;42.602;23.482;2022-10-16T04:32:37;7.53;;;4.57;;
11805;SDS011;5960;42.602;23.482;2022-10-16T04:35:04;5.13;;;3.78;;
11805;SDS011;5960;42.602;23.482;2022-10-16T04:37:32;7.55;;;4.05;;
11805;SDS011;5960;42.602;23.482;2022-10-16T04:39:58;4.20;;;3.55;;
11805;SDS011;5960;42.602;23.482;2022-10-16T04:42:25;8.95;;;4.20;;
11805;SDS011;5960;42.602;23.482;2022-10-16T04:44:52;6.95;;;4.05;;
11805;SDS011;5960;42.602;23.482;2022-10-16T04:47:20;8.15;;;4.93;;
11805;SDS011;5960;42.602;23.482;2022-10-16T04:49:47;8.85;;;5.38;;
11805;SDS011;5960;42.602;23.482;2022-10-16T04:52:14;9.95;;;5.63;;
11805;SDS011;5960;42.602;23.482;2022-10-16T04:54:41;9.68;;;4.60;;
11805;SDS011;5960;42.602;23.482;2022-10-16T04:57:10;6.72;;;4.30;;
11805;SDS011;5960;42.602;23.482;2022-10-16T04:59:36;7.82;;;4.88;;
11805;SDS011;5960;42.602;23.482;2022-10-16T05:02:03;9.35;;;5.40;;
11805;SDS011;5960;42.602;23.482;2022-10-16T05:04:32;7.38;;;5.30;;
11805;SDS011;5960;42.602;23.482;2022-10-16T05:06:59;8.02;;;5.63;;
11805;SDS011;5960;42.602;23.482;2022-10-16T05:09:25;8.80;;;5.25;;
11805;SDS011;5960;42.602;23.482;2022-10-16T05:11:52;9.90;;;5.35;;
11805;SDS011;5960;42.602;23.482;2022-10-16T05:14:19;9.77;;;6.07;;
11805;SDS011;5960;42.602;23.482;2022-10-16T05:16:45;19.65;;;7.15;;
11805;SDS011;5960;42.602;23.482;2022-10-16T05:19:13;11.25;;;6.82;;
11805;SDS011;5960;42.602;23.482;2022-10-16T05:21:41;20.55;;;7.82;;
11805;SDS011;5960;42.602;23.482;2022-10-16T05:24:08;17.48;;;7.40;;
11805;SDS011;5960;42.602;23.482;2022-10-16T05:26:34;14.50;;;6.38;;
11805;SDS011;5960;42.602;23.482;2022-10-16T05:29:01;17.02;;;6.95;;
11805;SDS011;5960;42.602;23.482;2022-10-16T05:31:28;32.15;;;10.85;;
11805;SDS011;5960;42.602;23.482;2022-10-16T05:33:57;33.03;;;11.82;;
11805;SDS011;5960;42.602;23.482;2022-10-16T05:36:24;33.47;;;9.70;;
11805;SDS011;5960;42.602;23.482;2022-10-16T05:38:52;18.23;;;8.20;;
11805;SDS011;5960;42.602;23.482;2022-10-16T05:41:19;28.95;;;9.35;;
11805;SDS011;5960;42.602;23.482;2022-10-16T05:43:46;15.85;;;7.68;;
11805;SDS011;5960;42.602;23.482;2022-10-16T05:46:14;15.00;;;7.03;;
11805;SDS011;5960;42.602;23.482;2022-10-16T05:48:41;19.58;;;8.93;;
11805;SDS011;5960;42.602;23.482;2022-10-16T05:51:11;53.83;;;18.48;;
11805;SDS011;5960;42.602;23.482;2022-10-16T05:53:39;58.00;;;22.00;;
11805;SDS011;5960;42.602;23.482;2022-10-16T05:56:09;54.17;;;20.25;;
11805;SDS011;5960;42.602;23.482;2022-10-16T05:58:37;54.15;;;19.75;;
11805;SDS011;5960;42.602;23.482;2022-10-16T06:01:06;48.47;;;19.52;;
11805;SDS011;5960;42.602;23.482;2022-10-16T06:03:33;39.65;;;16.98;;
11805;SDS011;5960;42.602;23.482;2022-10-16T06:06:06;37.97;;;14.52;;
11805;SDS011;5960;42.602;23.482;2022-10-16T06:08:34;27.50;;;12.50;;
11805;SDS011;5960;42.602;23.482;2022-10-16T06:11:01;33.47;;;12.13;;
11805;SDS011;5960;42.602;23.482;2022-10-16T06:13:30;30.90;;;14.10;;
11805;SDS011;5960;42.602;23.482;2022-10-16T06:15:57;28.88;;;11.80;;
11805;SDS011;5960;42.602;23.482;2022-10-16T06:18:25;16.27;;;8.68;;
11805;SDS011;5960;42.602;23.482;2022-10-16T06:20:53;11.18;;;5.50;;
11805;SDS011;5960;42.602;23.482;2022-10-16T06:23:20;11.30;;;4.85;;
11805;SDS011;5960;42.602;23.482;2022-10-16T06:25:46;8.88;;;5.25;;
11805;SDS011;5960;42.602;23.482;2022-10-16T06:28:13;9.63;;;5.18;;
11805;SDS011;5960;42.602;23.482;2022-10-16T06:30:42;10.15;;;5.53;;
11805;SDS011;5960;42.602;23.482;2022-10-16T06:33:09;9.70;;;5.88;;
11805;SDS011;5960;42.602;23.482;2022-10-16T06:35:36;10.75;;;6.60;;
11805;SDS011;5960;42.602;23.482;2022-10-16T06:38:02;10.30;;;5.93;;
11805;SDS011;5960;42.602;23.482;2022-10-16T06:40:29;11.20;;;6.40;;
11805;SDS011;5960;42.602;23.482;2022-10-16T06:42:56;12.15;;;6.90;;
11805;SDS011;5960;42.602;23.482;2022-10-16T06:45:23;20.33;;;10.38;;
11805;SDS011;5960;42.602;23.482;2022-10-16T06:47:51;8.98;;;5.45;;
11805;SDS011;5960;42.602;23.482;2022-10-16T06:50:17;10.07;;;5.80;;
11805;SDS011;5960;42.602;23.482;2022-10-16T06:52:44;8.00;;;5.20;;
11805;SDS011;5960;42.602;23.482;2022-10-16T06:55:11;9.90;;;5.50;;
11805;SDS011;5960;42.602;23.482;2022-10-16T06:57:38;8.57;;;6.18;;
11805;SDS011;5960;42.602;23.482;2022-10-16T07:00:05;9.80;;;5.57;;
11805;SDS011;5960;42.602;23.482;2022-10-16T07:02:32;10.52;;;6.03;;
11805;SDS011;5960;42.602;23.482;2022-10-16T07:05:00;8.27;;;5.65;;
11805;SDS011;5960;42.602;23.482;2022-10-16T07:07:27;8.68;;;5.30;;
11805;SDS011;5960;42.602;23.482;2022-10-16T07:09:54;7.50;;;5.25;;
11805;SDS011;5960;42.602;23.482;2022-10-16T07:12:21;8.27;;;6.07;;
11805;SDS011;5960;42.602;23.482;2022-10-16T07:14:48;9.20;;;5.32;;
11805;SDS011;5960;42.602;23.482;2022-10-16T07:17:17;9.90;;;5.90;;
11805;SDS011;5960;42.602;23.482;2022-10-16T07:19:44;10.50;;;7.97;;
11805;SDS011;5960;42.602;23.482;2022-10-16T07:22:12;8.77;;;5.90;;
11805;SDS011;5960;42.602;23.482;2022-10-16T07:24:39;8.65;;;5.88;;
11805;SDS011;5960;42.602;23.482;2022-10-16T07:27:06;9.50;;;5.57;;
11805;SDS011;5960;42.602;23.482;2022-10-16T07:29:32;9.13;;;5.68;;
11805;SDS011;5960;42.602;23.482;2022-10-16T07:31:59;9.13;;;5.18;;
11805;SDS011;5960;42.602;23.482;2022-10-16T07:34:26;10.55;;;5.85;;
11805;SDS011;5960;42.602;23.482;2022-10-16T07:36:52;5.95;;;4.63;;
11805;SDS011;5960;42.602;23.482;2022-10-16T07:39:21;7.13;;;4.93;;
11805;SDS011;5960;42.602;23.482;2022-10-16T07:41:48;7.97;;;5.18;;
11805;SDS011;5960;42.602;23.482;2022-10-16T07:44:15;5.78;;;4.15;;
11805;SDS011;5960;42.602;23.482;2022-10-16T07:46:42;7.30;;;4.57;;
11805;SDS011;5960;42.602;23.482;2022-10-16T07:49:09;6.22;;;4.18;;
11805;SDS011;5960;42.602;23.482;2022-10-16T07:51:36;6.63;;;4.55;;
11805;SDS011;5960;42.602;23.482;2022-10-16T07:54:03;8.00;;;4.30;;
11805;SDS011;5960;42.602;23.482;2022-10-16T07:56:31;5.18;;;3.60;;
11805;SDS011;5960;42.602;23.482;2022-10-16T07:58:58;6.70;;;4.43;;
11805;SDS011;5960;42.602;23.482;2022-10-16T08:01:25;6.60;;;3.60;;
11805;SDS011;5960;42.602;23.482;2022-10-16T08:03:52;5.43;;;3.45;;
11805;SDS011;5960;42.602;23.482;2022-10-16T08:06:19;5.63;;;4.00;;
11805;SDS011;5960;42.602;23.482;2022-10-16T08:08:47;5.88;;;3.42;;
11805;SDS011;5960;42.602;23.482;2022-10-16T08:11:14;5.63;;;3.70;;
11805;SDS011;5960;42.602;23.482;2022-10-16T08:13:42;4.43;;;3.60;;
11805;SDS011;5960;42.602;23.482;2022-10-16T08:16:09;17.98;;;14.07;;
11805;SDS011;5960;42.602;23.482;2022-10-16T08:18:36;8.38;;;4.75;;
11805;SDS011;5960;42.602;23.482;2022-10-16T08:21:04;4.38;;;3.63;;
11805;SDS011;5960;42.602;23.482;2022-10-16T08:23:32;6.60;;;3.90;;
11805;SDS011;5960;42.602;23.482;2022-10-16T08:26:02;3.05;;;2.75;;
11805;SDS011;5960;42.602;23.482;2022-10-16T08:28:30;5.20;;;3.75;;
11805;SDS011;5960;42.602;23.482;2022-10-16T08:31:05;6.00;;;2.83;;
11805;SDS011;5960;42.602;23.482;2022-10-16T08:33:33;5.55;;;3.50;;
11805;SDS011;5960;42.602;23.482;2022-10-16T08:36:01;6.88;;;3.80;;
11805;SDS011;5960;42.602;23.482;2022-10-16T08:38:28;6.20;;;3.65;;
11805;SDS011;5960;42.602;23.482;2022-10-16T08:40:55;5.45;;;3.90;;
11805;SDS011;5960;42.602;23.482;2022-10-16T08:43:36;5.05;;;3.40;;
11805;SDS011;5960;42.602;23.482;2022-10-16T08:46:21;7.57;;;3.78;;
11805;SDS011;5960;42.602;23.482;2022-10-16T08:49:01;5.45;;;3.50;;
11805;SDS011;5960;42.602;23.482;2022-10-16T08:51:30;5.22;;;3.38;;
11805;SDS011;5960;42.602;23.482;2022-10-16T08:53:59;5.35;;;3.33;;
11805;SDS011;5960;42.602;23.482;2022-10-16T08:56:29;11.70;;;6.15;;
11805;SDS011;5960;42.602;23.482;2022-10-16T08:58:57;5.53;;;3.25;;
11805;SDS011;5960;42.602;23.482;2022-10-16T09:01:32;4.63;;;3.10;;
11805;SDS011;5960;42.602;23.482;2022-10-16T09:04:15;4.97;;;3.65;;
11805;SDS011;5960;42.602;23.482;2022-10-16T09:07:14;5.05;;;3.08;;
11805;SDS011;5960;42.602;23.482;2022-10-16T09:09:54;4.03;;;3.15;;
11805;SDS011;5960;42.602;23.482;2022-10-16T09:12:31;3.97;;;3.00;;
11805;SDS011;5960;42.602;23.482;2022-10-16T09:15:12;4.30;;;3.40;;
11805;SDS011;5960;42.602;23.482;2022-10-16T09:17:48;6.35;;;3.20;;
11805;SDS011;5960;42.602;23.482;2022-10-16T09:20:26;4.43;;;3.08;;
11805;SDS011;5960;42.602;23.482;2022-10-16T09:23:00;5.28;;;3.50;;
11805;SDS011;5960;42.602;23.482;2022-10-16T09:25:38;5.35;;;2.92;;
11805;SDS011;5960;42.602;23.482;2022-10-16T09:28:07;5.50;;;3.65;;
11805;SDS011;5960;42.602;23.482;2022-10-16T09:30:35;4.43;;;3.53;;
11805;SDS011;5960;42.602;23.482;2022-10-16T09:33:05;5.00;;;4.13;;
11805;SDS011;5960;42.602;23.482;2022-10-16T09:35:34;4.47;;;3.58;;
11805;SDS011;5960;42.602;23.482;2022-10-16T09:38:04;6.68;;;3.88;;
11805;SDS011;5960;42.602;23.482;2022-10-16T09:40:31;4.05;;;3.63;;
11805;SDS011;5960;42.602;23.482;2022-10-16T09:43:01;5.55;;;3.65;;
11805;SDS011;5960;42.602;23.482;2022-10-16T09:45:35;5.88;;;3.90;;
11805;SDS011;5960;42.602;23.482;2022-10-16T09:48:09;3.58;;;3.10;;
11805;SDS011;5960;42.602;23.482;2022-10-16T09:50:37;4.10;;;3.00;;
11805;SDS011;5960;42.602;23.482;2022-10-16T09:53:05;4.93;;;3.65;;
11805;SDS011;5960;42.602;23.482;2022-10-16T09:55:32;3.60;;;3.28;;
11805;SDS011;5960;42.602;23.482;2022-10-16T09:57:59;6.53;;;3.83;;
11805;SDS011;5960;42.602;23.482;2022-10-16T10:00:25;6.55;;;3.60;;
11805;SDS011;5960;42.602;23.482;2022-10-16T10:02:52;5.65;;;3.97;;
11805;SDS011;5960;42.602;23.482;2022-10-16T10:05:22;7.22;;;4.18;;
11805;SDS011;5960;42.602;23.482;2022-10-16T10:07:55;6.47;;;4.18;;
11805;SDS011;5960;42.602;23.482;2022-10-16T10:10:24;4.72;;;3.38;;
11805;SDS011;5960;42.602;23.482;2022-10-16T10:12:53;5.10;;;3.15;;
11805;SDS011;5960;42.602;23.482;2022-10-16T10:15:20;4.78;;;2.85;;
11805;SDS011;5960;42.602;23.482;2022-10-16T10:17:49;4.38;;;3.70;;
11805;SDS011;5960;42.602;23.482;2022-10-16T10:20:26;5.80;;;3.05;;
11805;SDS011;5960;42.602;23.482;2022-10-16T10:22:55;4.63;;;3.25;;
11805;SDS011;5960;42.602;23.482;2022-10-16T10:25:34;4.03;;;3.17;;
11805;SDS011;5960;42.602;23.482;2022-10-16T10:28:18;5.30;;;3.17;;
11805;SDS011;5960;42.602;23.482;2022-10-16T10:30:56;6.25;;;3.30;;
11805;SDS011;5960;42.602;23.482;2022-10-16T10:33:31;3.70;;;2.70;;
11805;SDS011;5960;42.602;23.482;2022-10-16T10:36:11;3.17;;;2.80;;
11805;SDS011;5960;42.602;23.482;2022-10-16T10:38:48;9.98;;;5.55;;
11805;SDS011;5960;42.602;23.482;2022-10-16T10:41:24;7.30;;;4.82;;
11805;SDS011;5960;42.602;23.482;2022-10-16T10:44:03;4.32;;;3.45;;
11805;SDS011;5960;42.602;23.482;2022-10-16T10:46:39;3.97;;;2.90;;
11805;SDS011;5960;42.602;23.482;2022-10-16T10:49:21;3.50;;;2.92;;
11805;SDS011;5960;42.602;23.482;2022-10-16T10:52:05;4.72;;;2.83;;
11805;SDS011;5960;42.602;23.482;2022-10-16T10:54:41;3.55;;;2.83;;
11805;SDS011;5960;42.602;23.482;2022-10-16T10:57:18;2.92;;;2.28;;
11805;SDS011;5960;42.602;23.482;2022-10-16T10:59:57;4.75;;;2.47;;
11805;SDS011;5960;42.602;23.482;2022-10-16T11:02:34;3.22;;;2.20;;
11805;SDS011;5960;42.602;23.482;2022-10-16T11:08:02;4.03;;;2.47;;
11805;SDS011;5960;42.602;23.482;2022-10-16T11:10:37;5.45;;;3.50;;
11805;SDS011;5960;42.602;23.482;2022-10-16T11:13:15;4.93;;;2.85;;
11805;SDS011;5960;42.602;23.482;2022-10-16T11:15:48;2.88;;;2.47;;
11805;SDS011;5960;42.602;23.482;2022-10-16T11:18:21;3.03;;;2.58;;
11805;SDS011;5960;42.602;23.482;2022-10-16T11:20:53;3.33;;;2.40;;
11805;SDS011;5960;42.602;23.482;2022-10-16T11:23:26;3.10;;;2.25;;
11805;SDS011;5960;42.602;23.482;2022-10-16T11:25:56;2.30;;;2.03;;
11805;SDS011;5960;42.602;23.482;2022-10-16T11:28:27;3.38;;;2.60;;
11805;SDS011;5960;42.602;23.482;2022-10-16T11:31:00;4.25;;;2.53;;
11805;SDS011;5960;42.602;23.482;2022-10-16T11:33:34;5.43;;;2.65;;
11805;SDS011;5960;42.602;23.482;2022-10-16T11:36:08;3.17;;;2.00;;
11805;SDS011;5960;42.602;23.482;2022-10-16T11:38:43;4.25;;;2.75;;
11805;SDS011;5960;42.602;23.482;2022-10-16T11:41:20;3.42;;;2.20;;
11805;SDS011;5960;42.602;23.482;2022-10-16T11:43:57;4.40;;;2.40;;
11805;SDS011;5960;42.602;23.482;2022-10-16T11:46:32;3.13;;;1.98;;
11805;SDS011;5960;42.602;23.482;2022-10-16T11:49:06;2.05;;;1.80;;
11805;SDS011;5960;42.602;23.482;2022-10-16T11:51:38;2.85;;;1.92;;
11805;SDS011;5960;42.602;23.482;2022-10-16T11:54:13;4.70;;;2.13;;
11805;SDS011;5960;42.602;23.482;2022-10-16T11:56:47;2.67;;;1.90;;
11805;SDS011;5960;42.602;23.482;2022-10-16T11:59:21;3.30;;;1.70;;
11805;SDS011;5960;42.602;23.482;2022-10-16T12:01:53;2.10;;;1.90;;
11805;SDS011;5960;42.602;23.482;2022-10-16T12:04:25;2.85;;;2.05;;
11805;SDS011;5960;42.602;23.482;2022-10-16T12:07:01;2.20;;;1.80;;
11805;SDS011;5960;42.602;23.482;2022-10-16T12:09:32;2.30;;;2.08;;
11805;SDS011;5960;42.602;23.482;2022-10-16T12:12:02;2.00;;;1.80;;
11805;SDS011;5960;42.602;23.482;2022-10-16T12:14:36;2.70;;;2.00;;
11805;SDS011;5960;42.602;23.482;2022-10-16T12:20:00;1.75;;;1.60;;
11805;SDS011;5960;42.602;23.482;2022-10-16T12:22:28;1.67;;;1.58;;
11805;SDS011;5960;42.602;23.482;2022-10-16T12:24:58;2.72;;;1.90;;
11805;SDS011;5960;42.602;23.482;2022-10-16T12:27:27;3.05;;;2.00;;
11805;SDS011;5960;42.602;23.482;2022-10-16T12:29:56;3.10;;;2.00;;
11805;SDS011;5960;42.602;23.482;2022-10-16T12:32:27;1.73;;;1.63;;
11805;SDS011;5960;42.602;23.482;2022-10-16T12:34:57;2.30;;;1.92;;
11805;SDS011;5960;42.602;23.482;2022-10-16T12:37:26;2.65;;;2.15;;
11805;SDS011;5960;42.602;23.482;2022-10-16T12:39:55;2.35;;;2.08;;
11805;SDS011;5960;42.602;23.482;2022-10-16T12:42:32;4.03;;;2.85;;
11805;SDS011;5960;42.602;23.482;2022-10-16T12:45:00;7.47;;;2.40;;
11805;SDS011;5960;42.602;23.482;2022-10-16T12:47:37;3.08;;;2.30;;
11805;SDS011;5960;42.602;23.482;2022-10-16T12:50:24;2.88;;;2.40;;
11805;SDS011;5960;42.602;23.482;2022-10-16T12:52:59;2.10;;;1.90;;
11805;SDS011;5960;42.602;23.482;2022-10-16T12:55:27;2.45;;;2.05;;
11805;SDS011;5960;42.602;23.482;2022-10-16T13:00:57;2.70;;;2.10;;
11805;SDS011;5960;42.602;23.482;2022-10-16T13:03:41;2.47;;;1.95;;
11805;SDS011;5960;42.602;23.482;2022-10-16T13:06:27;2.22;;;1.80;;
11805;SDS011;5960;42.602;23.482;2022-10-16T13:09:07;2.20;;;2.00;;
11805;SDS011;5960;42.602;23.482;2022-10-16T13:17:39;2.30;;;2.10;;
11805;SDS011;5960;42.602;23.482;2022-10-16T13:20:13;3.47;;;2.30;;
11805;SDS011;5960;42.602;23.482;2022-10-16T13:22:49;2.22;;;2.03;;
11805;SDS011;5960;42.602;23.482;2022-10-16T13:25:25;4.75;;;4.28;;
11805;SDS011;5960;42.602;23.482;2022-10-16T13:28:01;4.20;;;3.90;;
11805;SDS011;5960;42.602;23.482;2022-10-16T13:30:30;3.72;;;2.70;;
11805;SDS011;5960;42.602;23.482;2022-10-16T13:33:00;3.53;;;2.00;;
11805;SDS011;5960;42.602;23.482;2022-10-16T13:35:29;1.98;;;1.77;;
11805;SDS011;5960;42.602;23.482;2022-10-16T13:38:04;4.32;;;2.75;;
11805;SDS011;5960;42.602;23.482;2022-10-16T13:40:48;23.33;;;17.50;;
11805;SDS011;5960;42.602;23.482;2022-10-16T13:43:21;36.10;;;26.20;;
11805;SDS011;5960;42.602;23.482;2022-10-16T13:45:54;15.70;;;12.68;;
11805;SDS011;5960;42.602;23.482;2022-10-16T13:48:24;3.97;;;2.40;;
11805;SDS011;5960;42.602;23.482;2022-10-16T13:51:01;4.75;;;3.05;;
11805;SDS011;5960;42.602;23.482;2022-10-16T13:53:33;3.65;;;3.30;;
11805;SDS011;5960;42.602;23.482;2022-10-16T13:56:02;5.28;;;4.78;;
11805;SDS011;5960;42.602;23.482;2022-10-16T13:58:30;5.35;;;3.40;;
11805;SDS011;5960;42.602;23.482;2022-10-16T14:00:58;6.03;;;2.53;;
11805;SDS011;5960;42.602;23.482;2022-10-16T14:03:28;3.03;;;2.53;;
11805;SDS011;5960;42.602;23.482;2022-10-16T14:05:57;3.20;;;2.75;;
11805;SDS011;5960;42.602;23.482;2022-10-16T14:08:26;3.70;;;3.40;;
11805;SDS011;5960;42.602;23.482;2022-10-16T14:10:55;3.65;;;2.53;;
11805;SDS011;5960;42.602;23.482;2022-10-16T14:13:27;2.20;;;1.98;;
11805;SDS011;5960;42.602;23.482;2022-10-16T14:15:57;3.40;;;2.03;;
11805;SDS011;5960;42.602;23.482;2022-10-16T14:18:28;8.35;;;2.83;;
11805;SDS011;5960;42.602;23.482;2022-10-16T14:21:01;3.45;;;2.83;;
11805;SDS011;5960;42.602;23.482;2022-10-16T14:23:30;4.20;;;2.60;;
11805;SDS011;5960;42.602;23.482;2022-10-16T14:26:05;5.72;;;3.03;;
11805;SDS011;5960;42.602;23.482;2022-10-16T14:28:38;3.58;;;3.03;;
11805;SDS011;5960;42.602;23.482;2022-10-16T14:31:19;2.28;;;2.05;;
11805;SDS011;5960;42.602;23.482;2022-10-16T14:33:59;5.05;;;3.53;;
11805;SDS011;5960;42.602;23.482;2022-10-16T14:36:26;8.40;;;5.68;;
11805;SDS011;5960;42.602;23.482;2022-10-16T14:38:57;5.68;;;4.60;;
11805;SDS011;5960;42.602;23.482;2022-10-16T14:41:27;3.75;;;2.90;;
11805;SDS011;5960;42.602;23.482;2022-10-16T14:43:55;4.68;;;3.35;;
11805;SDS011;5960;42.602;23.482;2022-10-16T14:46:28;3.72;;;3.17;;
11805;SDS011;5960;42.602;23.482;2022-10-16T14:49:00;5.35;;;4.40;;
11805;SDS011;5960;42.602;23.482;2022-10-16T14:51:31;5.13;;;3.33;;
11805;SDS011;5960;42.602;23.482;2022-10-16T14:53:57;4.32;;;2.78;;
11805;SDS011;5960;42.602;23.482;2022-10-16T14:56:25;5.65;;;3.08;;
11805;SDS011;5960;42.602;23.482;2022-10-16T14:58:55;3.95;;;2.60;;
11805;SDS011;5960;42.602;23.482;2022-10-16T15:01:23;5.28;;;2.80;;
11805;SDS011;5960;42.602;23.482;2022-10-16T15:03:50;4.10;;;2.45;;
11805;SDS011;5960;42.602;23.482;2022-10-16T15:06:20;4.63;;;3.17;;
11805;SDS011;5960;42.602;23.482;2022-10-16T15:08:47;7.68;;;4.35;;
11805;SDS011;5960;42.602;23.482;2022-10-16T15:11:15;10.82;;;6.72;;
11805;SDS011;5960;42.602;23.482;2022-10-16T15:13:44;16.67;;;8.98;;
11805;SDS011;5960;42.602;23.482;2022-10-16T15:16:11;10.90;;;4.90;;
11805;SDS011;5960;42.602;23.482;2022-10-16T15:18:40;7.43;;;4.70;;